sensor_id;sensor_type;location;lat;lon;timestamp;pressure;altitude;pressure_sealevel;temperature;humidity
70248;BME280;57641;51.416;5.506;2024-02-26T00:02:23;99916.50;;;12.23;50.83
70248;BME280;57641;51.416;5.506;2024-02-26T00:04:48;99913.13;;;12.50;49.66
70248;BME280;57641;51.416;5.506;2024-02-26T00:07:15;99911.69;;;12.33;50.00
70248;BME280;57641;51.416;5.506;2024-02-26T00:09:40;99916.97;;;12.26;50.78
70248;BME280;57641;51.416;5.506;2024-02-26T00:12:06;99915.94;;;12.42;49.82
70248;BME280;57641;51.416;5.506;2024-02-26T00:14:31;99922.13;;;12.28;50.86
70248;BME280;57641;51.416;5.506;2024-02-26T00:16:57;99918.78;;;12.41;50.67
70248;BME280;57641;51.416;5.506;2024-02-26T00:19:22;99913.19;;;12.21;50.75
70248;BME280;57641;51.416;5.506;2024-02-26T00:21:48;99903.25;;;12.15;51.36
70248;BME280;57641;51.416;5.506;2024-02-26T00:24:13;99908.84;;;12.35;50.58
70248;BME280;57641;51.416;5.506;2024-02-26T00:26:39;99909.88;;;12.19;51.42
70248;BME280;57641;51.416;5.506;2024-02-26T00:29:04;99911.00;;;12.10;52.00
70248;BME280;57641;51.416;5.506;2024-02-26T00:31:30;99917.06;;;12.54;50.45
70248;BME280;57641;51.416;5.506;2024-02-26T00:33:55;99915.53;;;12.45;50.21
70248;BME280;57641;51.416;5.506;2024-02-26T00:36:21;99901.53;;;12.43;50.67
70248;BME280;57641;51.416;5.506;2024-02-26T00:38:46;99899.19;;;12.19;51.03
70248;BME280;57641;51.416;5.506;2024-02-26T00:41:17;99896.00;;;12.45;50.67
70248;BME280;57641;51.416;5.506;2024-02-26T00:43:42;99903.22;;;12.30;51.56
70248;BME280;57641;51.416;5.506;2024-02-26T00:46:08;99900.94;;;12.12;52.69
70248;BME280;57641;51.416;5.506;2024-02-26T00:48:33;99896.19;;;11.93;52.98
70248;BME280;57641;51.416;5.506;2024-02-26T00:50:59;99889.88;;;12.30;51.14
70248;BME280;57641;51.416;5.506;2024-02-26T00:53:24;99890.16;;;12.20;51.83
70248;BME280;57641;51.416;5.506;2024-02-26T00:55:50;99892.22;;;12.03;52.88
70248;BME280;57641;51.416;5.506;2024-02-26T00:58:16;99889.91;;;12.15;52.41
70248;BME280;57641;51.416;5.506;2024-02-26T01:00:42;99887.78;;;12.10;52.14
70248;BME280;57641;51.416;5.506;2024-02-26T01:03:07;99889.69;;;12.31;52.21
70248;BME280;57641;51.416;5.506;2024-02-26T01:05:32;99891.00;;;12.20;51.75
70248;BME280;57641;51.416;5.506;2024-02-26T01:07:58;99897.16;;;12.21;51.99
70248;BME280;57641;51.416;5.506;2024-02-26T01:10:24;99900.94;;;12.26;52.20
70248;BME280;57641;51.416;5.506;2024-02-26T01:12:49;99897.00;;;12.44;51.69
70248;BME280;57641;51.416;5.506;2024-02-26T01:15:15;99899.75;;;12.14;52.15
70248;BME280;57641;51.416;5.506;2024-02-26T01:17:40;99899.53;;;12.31;51.63
70248;BME280;57641;51.416;5.506;2024-02-26T01:20:06;99905.91;;;12.30;52.29
70248;BME280;57641;51.416;5.506;2024-02-26T01:22:31;99898.91;;;12.14;53.18
70248;BME280;57641;51.416;5.506;2024-02-26T01:24:57;99910.25;;;11.87;53.59
70248;BME280;57641;51.416;5.506;2024-02-26T01:27:22;99905.94;;;11.85;54.41
70248;BME280;57641;51.416;5.506;2024-02-26T01:29:52;99917.16;;;11.96;54.10
70248;BME280;57641;51.416;5.506;2024-02-26T01:32:17;99916.06;;;12.05;54.19
70248;BME280;57641;51.416;5.506;2024-02-26T01:34:43;99916.06;;;12.05;54.43
70248;BME280;57641;51.416;5.506;2024-02-26T01:37:08;99927.22;;;11.94;53.94
70248;BME280;57641;51.416;5.506;2024-02-26T01:39:33;99918.56;;;11.92;54.45
70248;BME280;57641;51.416;5.506;2024-02-26T01:41:59;99919.00;;;11.95;55.10
70248;BME280;57641;51.416;5.506;2024-02-26T01:44:26;99926.75;;;11.90;55.11
70248;BME280;57641;51.416;5.506;2024-02-26T01:46:52;99931.53;;;11.80;55.73
70248;BME280;57641;51.416;5.506;2024-02-26T01:49:18;99932.84;;;11.99;55.25
70248;BME280;57641;51.416;5.506;2024-02-26T01:51:45;99926.66;;;11.83;56.28
70248;BME280;57641;51.416;5.506;2024-02-26T01:54:10;99932.91;;;11.91;55.96
70248;BME280;57641;51.416;5.506;2024-02-26T01:56:37;99931.34;;;11.81;57.08
70248;BME280;57641;51.416;5.506;2024-02-26T01:59:05;99939.09;;;11.76;57.48
70248;BME280;57641;51.416;5.506;2024-02-26T02:01:31;99937.69;;;11.80;57.46
70248;BME280;57641;51.416;5.506;2024-02-26T02:03:59;99940.06;;;11.61;58.58
70248;BME280;57641;51.416;5.506;2024-02-26T02:06:25;99940.78;;;11.55;59.03
70248;BME280;57641;51.416;5.506;2024-02-26T02:08:51;99939.09;;;11.54;59.06
70248;BME280;57641;51.416;5.506;2024-02-26T02:11:17;99931.09;;;11.39;59.21
70248;BME280;57641;51.416;5.506;2024-02-26T02:13:42;99919.94;;;11.73;58.12
70248;BME280;57641;51.416;5.506;2024-02-26T02:16:08;99914.50;;;11.81;57.55
70248;BME280;57641;51.416;5.506;2024-02-26T02:18:33;99922.53;;;11.43;58.80
70248;BME280;57641;51.416;5.506;2024-02-26T02:21:02;99915.56;;;11.72;58.68
70248;BME280;57641;51.416;5.506;2024-02-26T02:23:28;99916.44;;;11.35;60.33
70248;BME280;57641;51.416;5.506;2024-02-26T02:25:54;99928.88;;;11.42;60.09
70248;BME280;57641;51.416;5.506;2024-02-26T02:28:23;99916.63;;;11.33;59.94
70248;BME280;57641;51.416;5.506;2024-02-26T02:30:50;99916.03;;;11.23;60.26
70248;BME280;57641;51.416;5.506;2024-02-26T02:33:16;99916.28;;;11.36;59.24
70248;BME280;57641;51.416;5.506;2024-02-26T02:35:41;99920.91;;;11.57;58.71
70248;BME280;57641;51.416;5.506;2024-02-26T02:38:07;99918.28;;;11.34;59.22
70248;BME280;57641;51.416;5.506;2024-02-26T02:40:33;99914.50;;;11.29;59.81
70248;BME280;57641;51.416;5.506;2024-02-26T02:42:58;99919.44;;;11.17;60.28
70248;BME280;57641;51.416;5.506;2024-02-26T02:45:25;99923.91;;;11.39;59.68
70248;BME280;57641;51.416;5.506;2024-02-26T02:47:51;99920.56;;;11.23;59.60
70248;BME280;57641;51.416;5.506;2024-02-26T02:50:16;99926.19;;;11.05;60.54
70248;BME280;57641;51.416;5.506;2024-02-26T02:52:41;99921.31;;;11.31;59.89
70248;BME280;57641;51.416;5.506;2024-02-26T02:55:07;99926.94;;;10.99;60.86
70248;BME280;57641;51.416;5.506;2024-02-26T02:57:33;99925.63;;;10.72;62.16
70248;BME280;57641;51.416;5.506;2024-02-26T02:59:58;99917.44;;;10.96;61.71
70248;BME280;57641;51.416;5.506;2024-02-26T03:02:23;99914.22;;;11.24;60.45
70248;BME280;57641;51.416;5.506;2024-02-26T03:04:50;99920.38;;;11.01;62.30
70248;BME280;57641;51.416;5.506;2024-02-26T03:07:15;99925.81;;;10.93;61.94
70248;BME280;57641;51.416;5.506;2024-02-26T03:09:41;99921.19;;;11.10;61.28
70248;BME280;57641;51.416;5.506;2024-02-26T03:12:06;99927.91;;;11.21;60.53
70248;BME280;57641;51.416;5.506;2024-02-26T03:14:32;99923.59;;;11.20;60.02
70248;BME280;57641;51.416;5.506;2024-02-26T03:16:57;99920.97;;;11.12;60.77
70248;BME280;57641;51.416;5.506;2024-02-26T03:19:23;99915.22;;;11.00;60.49
70248;BME280;57641;51.416;5.506;2024-02-26T03:21:48;99928.34;;;10.87;62.22
70248;BME280;57641;51.416;5.506;2024-02-26T03:24:14;99924.59;;;10.96;60.58
70248;BME280;57641;51.416;5.506;2024-02-26T03:26:39;99927.56;;;11.01;60.80
70248;BME280;57641;51.416;5.506;2024-02-26T03:29:05;99927.84;;;11.06;60.87
70248;BME280;57641;51.416;5.506;2024-02-26T03:31:31;99926.81;;;10.92;60.77
70248;BME280;57641;51.416;5.506;2024-02-26T03:33:56;99933.69;;;10.87;61.07
70248;BME280;57641;51.416;5.506;2024-02-26T03:36:22;99924.75;;;10.94;61.04
70248;BME280;57641;51.416;5.506;2024-02-26T03:38:48;99929.44;;;10.70;62.06
70248;BME280;57641;51.416;5.506;2024-02-26T03:41:14;99928.63;;;10.92;61.37
70248;BME280;57641;51.416;5.506;2024-02-26T03:43:40;99927.56;;;11.01;60.52
70248;BME280;57641;51.416;5.506;2024-02-26T03:46:08;99928.03;;;10.82;62.33
70248;BME280;57641;51.416;5.506;2024-02-26T03:48:36;99933.56;;;11.03;60.52
70248;BME280;57641;51.416;5.506;2024-02-26T03:51:02;99933.22;;;10.83;61.90
70248;BME280;57641;51.416;5.506;2024-02-26T03:53:27;99937.91;;;10.50;62.58
70248;BME280;57641;51.416;5.506;2024-02-26T03:55:53;99936.28;;;10.95;61.09
70248;BME280;57641;51.416;5.506;2024-02-26T03:58:20;99933.41;;;10.74;61.90
70248;BME280;57641;51.416;5.506;2024-02-26T04:00:46;99935.91;;;10.75;61.79
70248;BME280;57641;51.416;5.506;2024-02-26T04:03:13;99927.50;;;10.86;61.76
70248;BME280;57641;51.416;5.506;2024-02-26T04:05:39;99934.25;;;10.51;62.44
70248;BME280;57641;51.416;5.506;2024-02-26T04:08:05;99938.38;;;10.54;62.87
70248;BME280;57641;51.416;5.506;2024-02-26T04:10:32;99937.41;;;10.78;61.67
70248;BME280;57641;51.416;5.506;2024-02-26T04:13:00;99942.47;;;10.65;62.32
70248;BME280;57641;51.416;5.506;2024-02-26T04:15:26;99939.97;;;10.40;63.40
70248;BME280;57641;51.416;5.506;2024-02-26T04:17:51;99948.53;;;10.81;61.54
70248;BME280;57641;51.416;5.506;2024-02-26T04:20:17;99944.19;;;10.57;62.62
70248;BME280;57641;51.416;5.506;2024-02-26T04:22:42;99944.00;;;10.59;62.43
70248;BME280;57641;51.416;5.506;2024-02-26T04:25:08;99951.53;;;10.55;62.37
70248;BME280;57641;51.416;5.506;2024-02-26T04:27:33;99944.75;;;10.45;62.56
70248;BME280;57641;51.416;5.506;2024-02-26T04:29:59;99946.34;;;10.62;62.08
70248;BME280;57641;51.416;5.506;2024-02-26T04:32:24;99946.38;;;10.54;62.06
70248;BME280;57641;51.416;5.506;2024-02-26T04:34:50;99957.00;;;10.62;62.28
70248;BME280;57641;51.416;5.506;2024-02-26T04:37:15;99954.88;;;10.80;61.72
70248;BME280;57641;51.416;5.506;2024-02-26T04:39:41;99964.91;;;10.78;61.46
70248;BME280;57641;51.416;5.506;2024-02-26T04:42:06;99965.50;;;11.11;60.43
70248;BME280;57641;51.416;5.506;2024-02-26T04:44:31;99973.00;;;10.85;61.39
70248;BME280;57641;51.416;5.506;2024-02-26T04:46:57;99968.34;;;10.56;62.15
70248;BME280;57641;51.416;5.506;2024-02-26T04:49:22;99965.34;;;10.59;61.72
70248;BME280;57641;51.416;5.506;2024-02-26T04:51:48;99965.38;;;10.51;62.67
70248;BME280;57641;51.416;5.506;2024-02-26T04:54:13;99972.72;;;10.49;62.65
70248;BME280;57641;51.416;5.506;2024-02-26T04:56:39;99968.88;;;10.51;61.95
70248;BME280;57641;51.416;5.506;2024-02-26T04:59:04;99962.03;;;10.57;62.24
70248;BME280;57641;51.416;5.506;2024-02-26T05:01:29;99957.41;;;10.51;62.20
70248;BME280;57641;51.416;5.506;2024-02-26T05:03:55;99960.97;;;10.27;62.90
70248;BME280;57641;51.416;5.506;2024-02-26T05:06:20;99961.28;;;10.40;62.54
70248;BME280;57641;51.416;5.506;2024-02-26T05:08:46;99965.94;;;10.38;63.22
70248;BME280;57641;51.416;5.506;2024-02-26T05:11:11;99965.59;;;10.41;62.79
70248;BME280;57641;51.416;5.506;2024-02-26T05:13:37;99972.09;;;10.39;63.85
70248;BME280;57641;51.416;5.506;2024-02-26T05:16:02;99984.97;;;10.27;63.85
70248;BME280;57641;51.416;5.506;2024-02-26T05:18:28;99975.81;;;10.30;63.27
70248;BME280;57641;51.416;5.506;2024-02-26T05:20:53;99979.66;;;10.11;63.33
70248;BME280;57641;51.416;5.506;2024-02-26T05:23:18;99985.31;;;10.24;63.00
70248;BME280;57641;51.416;5.506;2024-02-26T05:25:44;99988.28;;;10.29;63.52
70248;BME280;57641;51.416;5.506;2024-02-26T05:28:12;99975.28;;;10.65;62.10
70248;BME280;57641;51.416;5.506;2024-02-26T05:30:38;99988.13;;;10.31;62.76
70248;BME280;57641;51.416;5.506;2024-02-26T05:33:05;99989.59;;;10.41;62.56
70248;BME280;57641;51.416;5.506;2024-02-26T05:35:30;99993.25;;;10.71;61.50
70248;BME280;57641;51.416;5.506;2024-02-26T05:37:56;99988.38;;;10.83;60.75
70248;BME280;57641;51.416;5.506;2024-02-26T05:40:21;100007.22;;;10.42;61.49
70248;BME280;57641;51.416;5.506;2024-02-26T05:42:46;100008.03;;;10.43;62.26
70248;BME280;57641;51.416;5.506;2024-02-26T05:45:12;100003.69;;;10.50;62.53
70248;BME280;57641;51.416;5.506;2024-02-26T05:47:37;100021.53;;;10.49;62.24
70248;BME280;57641;51.416;5.506;2024-02-26T05:50:09;100020.69;;;10.49;62.61
70248;BME280;57641;51.416;5.506;2024-02-26T05:52:37;100021.63;;;10.09;63.88
70248;BME280;57641;51.416;5.506;2024-02-26T05:55:04;100023.94;;;10.28;62.82
70248;BME280;57641;51.416;5.506;2024-02-26T05:57:31;100030.34;;;10.50;63.58
70248;BME280;57641;51.416;5.506;2024-02-26T05:59:56;100023.59;;;10.70;62.76
70248;BME280;57641;51.416;5.506;2024-02-26T06:02:22;100036.00;;;10.55;61.97
70248;BME280;57641;51.416;5.506;2024-02-26T06:04:47;100032.31;;;10.56;62.51
70248;BME280;57641;51.416;5.506;2024-02-26T06:07:13;100040.34;;;10.48;62.95
70248;BME280;57641;51.416;5.506;2024-02-26T06:09:38;100029.44;;;10.19;63.77
70248;BME280;57641;51.416;5.506;2024-02-26T06:12:05;100037.13;;;10.61;62.10
70248;BME280;57641;51.416;5.506;2024-02-26T06:14:30;100033.50;;;10.53;63.44
70248;BME280;57641;51.416;5.506;2024-02-26T06:16:56;100036.91;;;10.78;62.27
70248;BME280;57641;51.416;5.506;2024-02-26T06:19:21;100053.81;;;10.54;62.54
70248;BME280;57641;51.416;5.506;2024-02-26T06:21:46;100043.00;;;10.56;62.93
70248;BME280;57641;51.416;5.506;2024-02-26T06:24:12;100045.75;;;10.24;64.22
70248;BME280;57641;51.416;5.506;2024-02-26T06:26:37;100055.22;;;10.34;63.92
70248;BME280;57641;51.416;5.506;2024-02-26T06:29:03;100053.38;;;10.35;63.27
70248;BME280;57641;51.416;5.506;2024-02-26T06:31:28;100059.03;;;10.40;63.23
70248;BME280;57641;51.416;5.506;2024-02-26T06:33:54;100064.25;;;9.93;65.42
70248;BME280;57641;51.416;5.506;2024-02-26T06:36:21;100057.88;;;10.10;63.68
70248;BME280;57641;51.416;5.506;2024-02-26T06:38:47;100060.88;;;10.39;62.65
70248;BME280;57641;51.416;5.506;2024-02-26T06:41:12;100072.56;;;10.06;64.06
70248;BME280;57641;51.416;5.506;2024-02-26T06:43:37;100064.88;;;10.27;62.72
70248;BME280;57641;51.416;5.506;2024-02-26T06:46:03;100070.72;;;10.31;62.55
70248;BME280;57641;51.416;5.506;2024-02-26T06:48:28;100069.25;;;10.20;63.53
70248;BME280;57641;51.416;5.506;2024-02-26T06:50:54;100074.38;;;10.30;63.15
70248;BME280;57641;51.416;5.506;2024-02-26T06:53:19;100080.19;;;10.33;63.48
70248;BME280;57641;51.416;5.506;2024-02-26T06:55:45;100076.38;;;10.36;63.23
70248;BME280;57641;51.416;5.506;2024-02-26T06:58:10;100077.56;;;10.17;63.48
70248;BME280;57641;51.416;5.506;2024-02-26T07:00:36;100086.00;;;10.45;62.21
70248;BME280;57641;51.416;5.506;2024-02-26T07:03:01;100077.88;;;10.22;62.58
70248;BME280;57641;51.416;5.506;2024-02-26T07:05:27;100088.03;;;10.35;62.69
70248;BME280;57641;51.416;5.506;2024-02-26T07:07:53;100100.38;;;10.20;63.23
70248;BME280;57641;51.416;5.506;2024-02-26T07:10:18;100098.88;;;10.17;62.46
70248;BME280;57641;51.416;5.506;2024-02-26T07:12:44;100102.69;;;10.14;62.47
70248;BME280;57641;51.416;5.506;2024-02-26T07:15:09;100103.34;;;10.00;62.76
70248;BME280;57641;51.416;5.506;2024-02-26T07:17:35;100114.50;;;10.36;62.10
70248;BME280;57641;51.416;5.506;2024-02-26T07:20:01;100115.84;;;10.16;63.62
70248;BME280;57641;51.416;5.506;2024-02-26T07:22:30;100121.47;;;10.05;63.01
70248;BME280;57641;51.416;5.506;2024-02-26T07:24:55;100131.81;;;10.08;63.17
70248;BME280;57641;51.416;5.506;2024-02-26T07:27:20;100136.97;;;9.85;63.14
70248;BME280;57641;51.416;5.506;2024-02-26T07:29:46;100143.47;;;10.15;63.88
70248;BME280;57641;51.416;5.506;2024-02-26T07:32:12;100150.31;;;10.34;62.53
70248;BME280;57641;51.416;5.506;2024-02-26T07:34:37;100151.31;;;10.08;63.81
70248;BME280;57641;51.416;5.506;2024-02-26T07:37:07;100150.13;;;10.35;62.09
70248;BME280;57641;51.416;5.506;2024-02-26T07:39:32;100161.25;;;10.47;62.47
70248;BME280;57641;51.416;5.506;2024-02-26T07:41:58;100161.97;;;10.16;63.04
70248;BME280;57641;51.416;5.506;2024-02-26T07:44:23;100160.13;;;10.17;62.51
70248;BME280;57641;51.416;5.506;2024-02-26T07:46:48;100165.16;;;10.20;63.10
70248;BME280;57641;51.416;5.506;2024-02-26T07:49:14;100166.28;;;10.01;64.20
70248;BME280;57641;51.416;5.506;2024-02-26T07:51:39;100165.59;;;10.15;63.54
70248;BME280;57641;51.416;5.506;2024-02-26T07:54:04;100169.25;;;10.06;63.30
70248;BME280;57641;51.416;5.506;2024-02-26T07:56:30;100167.13;;;9.94;63.91
70248;BME280;57641;51.416;5.506;2024-02-26T07:58:55;100175.22;;;9.84;64.35
70248;BME280;57641;51.416;5.506;2024-02-26T08:01:21;100176.41;;;9.82;64.03
70248;BME280;57641;51.416;5.506;2024-02-26T08:03:46;100176.25;;;10.07;63.33
70248;BME280;57641;51.416;5.506;2024-02-26T08:06:11;100183.25;;;10.08;63.42
70248;BME280;57641;51.416;5.506;2024-02-26T08:08:37;100180.94;;;10.22;63.57
70248;BME280;57641;51.416;5.506;2024-02-26T08:11:03;100181.25;;;10.02;63.44
70248;BME280;57641;51.416;5.506;2024-02-26T08:13:28;100180.78;;;10.15;63.07
70248;BME280;57641;51.416;5.506;2024-02-26T08:15:54;100182.06;;;9.70;65.48
70248;BME280;57641;51.416;5.506;2024-02-26T08:18:20;100195.03;;;9.73;64.85
70248;BME280;57641;51.416;5.506;2024-02-26T08:20:45;100196.41;;;10.26;63.20
70248;BME280;57641;51.416;5.506;2024-02-26T08:23:11;100197.41;;;10.09;64.98
70248;BME280;57641;51.416;5.506;2024-02-26T08:25:36;100200.44;;;10.22;63.49
70248;BME280;57641;51.416;5.506;2024-02-26T08:28:02;100198.25;;;10.18;63.76
70248;BME280;57641;51.416;5.506;2024-02-26T08:30:28;100209.06;;;10.32;63.44
70248;BME280;57641;51.416;5.506;2024-02-26T08:32:53;100206.44;;;10.24;63.50
70248;BME280;57641;51.416;5.506;2024-02-26T08:35:19;100217.22;;;10.55;62.17
70248;BME280;57641;51.416;5.506;2024-02-26T08:37:45;100221.41;;;10.17;63.36
70248;BME280;57641;51.416;5.506;2024-02-26T08:40:11;100224.91;;;10.26;63.87
70248;BME280;57641;51.416;5.506;2024-02-26T08:42:37;100219.56;;;10.09;64.54
70248;BME280;57641;51.416;5.506;2024-02-26T08:45:02;100222.75;;;10.29;63.74
70248;BME280;57641;51.416;5.506;2024-02-26T08:47:28;100221.56;;;10.48;63.19
70248;BME280;57641;51.416;5.506;2024-02-26T08:49:54;100222.50;;;9.90;64.62
70248;BME280;57641;51.416;5.506;2024-02-26T08:52:19;100236.06;;;10.29;63.44
70248;BME280;57641;51.416;5.506;2024-02-26T08:54:45;100236.06;;;10.29;63.43
70248;BME280;57641;51.416;5.506;2024-02-26T08:57:10;100236.56;;;10.25;62.88
70248;BME280;57641;51.416;5.506;2024-02-26T08:59:36;100243.53;;;10.42;62.75
70248;BME280;57641;51.416;5.506;2024-02-26T09:02:01;100244.06;;;10.29;62.85
70248;BME280;57641;51.416;5.506;2024-02-26T09:04:27;100249.31;;;10.05;63.44
70248;BME280;57641;51.416;5.506;2024-02-26T09:06:53;100250.16;;;10.05;63.87
70248;BME280;57641;51.416;5.506;2024-02-26T09:09:19;100253.47;;;9.91;63.68
70248;BME280;57641;51.416;5.506;2024-02-26T09:11:46;100262.91;;;9.69;64.67
70248;BME280;57641;51.416;5.506;2024-02-26T09:14:12;100262.75;;;9.79;64.68
70248;BME280;57641;51.416;5.506;2024-02-26T09:16:37;100266.31;;;10.12;63.76
70248;BME280;57641;51.416;5.506;2024-02-26T09:19:03;100268.81;;;10.13;63.55
70248;BME280;57641;51.416;5.506;2024-02-26T09:21:28;100264.00;;;10.09;63.26
70248;BME280;57641;51.416;5.506;2024-02-26T09:23:54;100271.47;;;9.97;63.32
70248;BME280;57641;51.416;5.506;2024-02-26T09:26:19;100275.78;;;9.98;63.82
70248;BME280;57641;51.416;5.506;2024-02-26T09:28:45;100281.78;;;10.00;63.20
70248;BME280;57641;51.416;5.506;2024-02-26T09:31:10;100282.94;;;10.06;63.63
70248;BME280;57641;51.416;5.506;2024-02-26T09:33:36;100288.63;;;10.11;63.00
70248;BME280;57641;51.416;5.506;2024-02-26T09:36:02;100292.56;;;9.91;64.02
70248;BME280;57641;51.416;5.506;2024-02-26T09:38:28;100295.28;;;10.07;64.81
70248;BME280;57641;51.416;5.506;2024-02-26T09:40:56;100296.44;;;10.04;64.10
70248;BME280;57641;51.416;5.506;2024-02-26T09:43:23;100291.88;;;10.31;62.26
70248;BME280;57641;51.416;5.506;2024-02-26T09:45:53;100302.00;;;10.27;62.96
70248;BME280;57641;51.416;5.506;2024-02-26T09:48:19;100300.53;;;10.57;61.39
70248;BME280;57641;51.416;5.506;2024-02-26T09:50:46;100313.47;;;9.69;64.86
70248;BME280;57641;51.416;5.506;2024-02-26T09:53:12;100311.59;;;10.04;63.45
70248;BME280;57641;51.416;5.506;2024-02-26T09:55:40;100312.31;;;10.22;63.82
70248;BME280;57641;51.416;5.506;2024-02-26T09:58:06;100317.00;;;10.20;63.39
70248;BME280;57641;51.416;5.506;2024-02-26T10:00:36;100327.63;;;9.70;65.14
70248;BME280;57641;51.416;5.506;2024-02-26T10:03:04;100323.38;;;9.93;64.66
70248;BME280;57641;51.416;5.506;2024-02-26T10:05:31;100336.66;;;10.35;63.17
70248;BME280;57641;51.416;5.506;2024-02-26T10:07:57;100343.16;;;9.91;64.79
70248;BME280;57641;51.416;5.506;2024-02-26T10:10:24;100343.63;;;10.20;64.37
70248;BME280;57641;51.416;5.506;2024-02-26T10:12:49;100344.63;;;10.27;63.53
70248;BME280;57641;51.416;5.506;2024-02-26T10:15:15;100343.97;;;10.25;64.49
70248;BME280;57641;51.416;5.506;2024-02-26T10:17:41;100356.47;;;10.25;62.96
70248;BME280;57641;51.416;5.506;2024-02-26T10:20:17;100358.66;;;9.95;65.10
70248;BME280;57641;51.416;5.506;2024-02-26T10:22:53;100358.63;;;9.87;64.99
70248;BME280;57641;51.416;5.506;2024-02-26T10:25:18;100362.69;;;10.07;65.38
70248;BME280;57641;51.416;5.506;2024-02-26T10:27:45;100373.47;;;10.40;63.46
70248;BME280;57641;51.416;5.506;2024-02-26T10:30:18;100371.72;;;10.14;64.05
70248;BME280;57641;51.416;5.506;2024-02-26T10:32:45;100367.75;;;10.19;64.09
70248;BME280;57641;51.416;5.506;2024-02-26T10:35:12;100379.16;;;10.45;63.71
70248;BME280;57641;51.416;5.506;2024-02-26T10:37:39;100381.47;;;10.40;64.03
70248;BME280;57641;51.416;5.506;2024-02-26T10:40:10;100393.22;;;10.21;63.34
70248;BME280;57641;51.416;5.506;2024-02-26T10:42:36;100387.44;;;10.42;63.40
70248;BME280;57641;51.416;5.506;2024-02-26T10:45:03;100397.56;;;10.22;63.76
70248;BME280;57641;51.416;5.506;2024-02-26T10:47:29;100401.94;;;10.39;63.80
70248;BME280;57641;51.416;5.506;2024-02-26T10:49:56;100398.34;;;10.14;64.47
70248;BME280;57641;51.416;5.506;2024-02-26T10:52:22;100411.13;;;10.53;62.92
70248;BME280;57641;51.416;5.506;2024-02-26T10:54:53;100413.44;;;10.48;62.80
70248;BME280;57641;51.416;5.506;2024-02-26T10:57:20;100417.66;;;10.08;65.52
70248;BME280;57641;51.416;5.506;2024-02-26T10:59:47;100422.88;;;10.18;65.05
70248;BME280;57641;51.416;5.506;2024-02-26T11:02:13;100422.19;;;10.16;64.99
70248;BME280;57641;51.416;5.506;2024-02-26T11:04:39;100427.06;;;10.37;63.63
70248;BME280;57641;51.416;5.506;2024-02-26T11:07:06;100428.50;;;10.15;64.92
70248;BME280;57641;51.416;5.506;2024-02-26T11:09:33;100430.09;;;10.34;63.58
70248;BME280;57641;51.416;5.506;2024-02-26T11:12:01;100438.78;;;10.44;62.25
70248;BME280;57641;51.416;5.506;2024-02-26T11:14:29;100441.78;;;10.41;62.77
70248;BME280;57641;51.416;5.506;2024-02-26T11:16:56;100441.53;;;10.26;63.12
70248;BME280;57641;51.416;5.506;2024-02-26T11:19:24;100446.41;;;10.39;63.62
70248;BME280;57641;51.416;5.506;2024-02-26T11:21:50;100450.56;;;10.33;63.07
70248;BME280;57641;51.416;5.506;2024-02-26T11:24:16;100452.13;;;10.52;62.85
70248;BME280;57641;51.416;5.506;2024-02-26T11:29:11;100454.41;;;10.31;63.79
70248;BME280;57641;51.416;5.506;2024-02-26T11:31:39;100462.38;;;10.31;62.87
70248;BME280;57641;51.416;5.506;2024-02-26T11:34:07;100467.59;;;10.40;62.86
70248;BME280;57641;51.416;5.506;2024-02-26T11:36:34;100466.69;;;10.32;63.19
70248;BME280;57641;51.416;5.506;2024-02-26T11:38:59;100469.25;;;10.49;63.39
70248;BME280;57641;51.416;5.506;2024-02-26T11:41:25;100467.94;;;10.45;63.07
70248;BME280;57641;51.416;5.506;2024-02-26T11:43:52;100471.28;;;10.13;64.64
70248;BME280;57641;51.416;5.506;2024-02-26T11:46:31;100471.94;;;10.15;63.76
70248;BME280;57641;51.416;5.506;2024-02-26T11:48:58;100474.53;;;10.33;63.39
70248;BME280;57641;51.416;5.506;2024-02-26T11:51:26;100474.22;;;10.10;64.47
70248;BME280;57641;51.416;5.506;2024-02-26T11:53:52;100475.66;;;10.23;64.15
70248;BME280;57641;51.416;5.506;2024-02-26T11:58:45;100478.47;;;10.21;63.52
70248;BME280;57641;51.416;5.506;2024-02-26T12:01:36;100473.75;;;10.49;62.83
70248;BME280;57641;51.416;5.506;2024-02-26T12:04:05;100482.91;;;10.12;64.06
70248;BME280;57641;51.416;5.506;2024-02-26T12:06:39;100482.97;;;10.21;63.39
70248;BME280;57641;51.416;5.506;2024-02-26T12:09:05;100487.47;;;9.94;64.66
70248;BME280;57641;51.416;5.506;2024-02-26T12:11:30;100481.50;;;10.00;65.63
70248;BME280;57641;51.416;5.506;2024-02-26T12:13:56;100490.59;;;10.49;63.61
70248;BME280;57641;51.416;5.506;2024-02-26T12:16:42;100500.06;;;10.44;63.37
70248;BME280;57641;51.416;5.506;2024-02-26T12:19:10;100503.38;;;10.38;63.82
70248;BME280;57641;51.416;5.506;2024-02-26T12:21:37;100507.28;;;10.59;63.32
70248;BME280;57641;51.416;5.506;2024-02-26T12:24:13;100497.03;;;10.39;63.78
70248;BME280;57641;51.416;5.506;2024-02-26T12:26:40;100500.06;;;10.44;63.55
70248;BME280;57641;51.416;5.506;2024-02-26T12:29:06;100504.34;;;10.37;64.52
70248;BME280;57641;51.416;5.506;2024-02-26T12:31:32;100507.00;;;10.29;64.45
70248;BME280;57641;51.416;5.506;2024-02-26T12:34:01;100515.06;;;10.45;65.20
70248;BME280;57641;51.416;5.506;2024-02-26T12:36:27;100522.00;;;10.30;65.03
70248;BME280;57641;51.416;5.506;2024-02-26T12:38:52;100513.88;;;10.13;66.07
70248;BME280;57641;51.416;5.506;2024-02-26T12:41:18;100522.16;;;10.28;65.53
70248;BME280;57641;51.416;5.506;2024-02-26T12:43:44;100532.13;;;10.26;65.58
70248;BME280;57641;51.416;5.506;2024-02-26T12:46:11;100540.16;;;10.76;64.61
70248;BME280;57641;51.416;5.506;2024-02-26T12:48:38;100529.66;;;10.33;65.37
70248;BME280;57641;51.416;5.506;2024-02-26T12:51:04;100534.22;;;10.48;64.71
70248;BME280;57641;51.416;5.506;2024-02-26T12:53:31;100541.84;;;10.77;63.17
70248;BME280;57641;51.416;5.506;2024-02-26T12:55:57;100550.84;;;10.42;64.68